createdAt,value
2019-05-01T00:01:00.974Z,99.90
2019-05-01T00:03:25.008Z,99.90
2019-05-01T00:05:32.784Z,99.90
2019-05-01T00:07:38.432Z,99.80
2019-05-01T00:09:44.050Z,99.90
2019-05-01T00:11:49.707Z,99.80
2019-05-01T00:13:55.731Z,99.90
2019-05-01T00:16:01.488Z,99.60
2019-05-01T00:18:07.475Z,99.50
2019-05-01T00:20:13.665Z,99.60
2019-05-01T00:22:19.271Z,99.60
2019-05-01T00:24:24.784Z,99.60
2019-05-01T00:26:30.498Z,99.90
2019-05-01T00:28:36.137Z,99.70
2019-05-01T00:30:41.938Z,99.80
2019-05-01T00:32:47.466Z,99.70
2019-05-01T00:34:53.205Z,99.90
2019-05-01T00:37:00.025Z,99.70
2019-05-01T00:39:07.462Z,99.80
2019-05-01T00:41:14.525Z,99.80
2019-05-01T00:43:20.056Z,99.80
2019-05-01T00:45:26.790Z,99.90
2019-05-01T00:47:32.381Z,99.90
2019-05-01T00:49:38.022Z,99.90
2019-05-01T00:51:43.617Z,99.70
2019-05-01T00:53:49.270Z,99.90
2019-05-01T00:56:05.568Z,99.90
2019-05-01T00:58:29.187Z,99.90
2019-05-01T01:00:52.727Z,99.90
2019-05-01T01:02:58.921Z,99.90
2019-05-01T01:05:05.664Z,99.90
2019-05-01T01:07:11.277Z,99.90
2019-05-01T01:09:17.451Z,99.90
2019-05-01T01:11:23.038Z,99.90
2019-05-01T01:13:28.618Z,99.90
2019-05-01T01:15:34.199Z,99.90
2019-05-01T01:17:39.941Z,99.90
2019-05-01T01:19:45.514Z,99.90
2019-05-01T01:21:51.264Z,99.90
2019-05-01T01:23:57.548Z,99.90
2019-05-01T01:26:03.209Z,99.90
2019-05-01T01:28:08.857Z,99.90
2019-05-01T01:30:14.835Z,99.90
2019-05-01T01:32:20.698Z,99.70
2019-05-01T01:34:26.656Z,99.70
2019-05-01T01:36:32.279Z,99.80
2019-05-01T01:38:37.924Z,99.70
2019-05-01T01:40:44.992Z,99.90
2019-05-01T01:42:52.491Z,99.90
2019-05-01T01:45:15.420Z,99.90
2019-05-01T01:47:21.697Z,99.60
2019-05-01T01:49:27.421Z,99.50
2019-05-01T01:51:33.163Z,99.60
2019-05-01T01:53:38.819Z,99.70
2019-05-01T01:55:46.658Z,99.60
2019-05-01T01:57:52.575Z,99.60
2019-05-01T01:59:58.715Z,99.50
2019-05-01T02:02:08.933Z,99.60
2019-05-01T02:04:18.891Z,99.50
2019-05-01T02:06:25.612Z,99.50
2019-05-01T02:08:31.416Z,99.40
2019-05-01T02:10:42.838Z,99.30
2019-05-01T02:12:45.078Z,99.00
2019-05-01T02:14:50.772Z,99.10
2019-05-01T02:16:57.521Z,99.30
2019-05-01T02:19:03.274Z,98.80
2019-05-01T02:21:08.871Z,98.80
2019-05-01T02:23:14.417Z,98.90
2019-05-01T02:25:20.446Z,98.70
2019-05-01T02:27:30.863Z,98.70
2019-05-01T02:29:41.012Z,98.70
2019-05-01T02:31:49.941Z,98.60
2019-05-01T02:33:56.296Z,99.00
2019-05-01T02:36:03.529Z,98.80
2019-05-01T02:38:10.404Z,98.70
2019-05-01T02:40:24.673Z,98.90
2019-05-01T02:42:32.901Z,98.60
2019-05-01T02:44:42.575Z,98.80
2019-05-01T02:46:50.553Z,99.00
2019-05-01T02:49:08.106Z,99.00
2019-05-01T02:51:14.077Z,99.10
2019-05-01T02:53:21.335Z,98.80
2019-05-01T02:55:28.623Z,98.80
2019-05-01T02:57:36.497Z,98.70
2019-05-01T02:59:45.237Z,99.00
2019-05-01T03:01:51.098Z,98.70
2019-05-01T03:03:57.256Z,98.80
2019-05-01T03:06:03.200Z,98.70
2019-05-01T03:08:10.382Z,98.90
2019-05-01T03:10:17.375Z,98.60
2019-05-01T03:12:25.978Z,98.40
2019-05-01T03:14:34.354Z,98.70
2019-05-01T03:16:40.770Z,98.30
2019-05-01T03:18:49.764Z,98.30
2019-05-01T03:21:04.243Z,98.20
2019-05-01T03:23:24.333Z,98.20
2019-05-01T03:25:30.113Z,98.10
2019-05-01T03:27:35.965Z,98.10
2019-05-01T03:29:42.066Z,97.80
2019-05-01T03:32:14.476Z,98.00
2019-05-01T03:33:57.145Z,98.70
2019-05-01T03:36:03.979Z,98.10
2019-05-01T03:38:09.651Z,98.00
2019-05-01T03:40:15.515Z,98.00
2019-05-01T03:42:21.566Z,97.80
2019-05-01T03:44:27.345Z,97.70
2019-05-01T03:46:33.209Z,97.70
2019-05-01T03:48:39.152Z,97.50
2019-05-01T03:50:47.089Z,97.90
2019-05-01T03:52:52.525Z,98.00
2019-05-01T03:54:58.179Z,97.90
2019-05-01T03:57:04.281Z,97.70
2019-05-01T03:59:10.085Z,97.80
2019-05-01T04:01:19.215Z,98.20
2019-05-01T04:03:26.588Z,97.80
2019-05-01T04:05:32.308Z,97.80
2019-05-01T04:07:38.049Z,97.60
2019-05-01T04:09:43.725Z,97.60
2019-05-01T04:11:49.630Z,97.80
2019-05-01T04:13:55.169Z,97.50
2019-05-01T04:16:00.944Z,97.30
2019-05-01T04:18:08.956Z,97.60
2019-05-01T04:20:14.892Z,97.60
2019-05-01T04:22:20.545Z,97.40
2019-05-01T04:24:26.869Z,97.40
2019-05-01T04:26:32.724Z,97.60
2019-05-01T04:28:40.498Z,97.20
2019-05-01T04:30:57.064Z,97.00
2019-05-01T04:33:04.283Z,97.40
2019-05-01T04:35:15.310Z,97.30
2019-05-01T04:37:22.540Z,96.80
2019-05-01T04:39:28.398Z,96.70
2019-05-01T04:41:35.381Z,96.90
2019-05-01T04:43:41.330Z,96.90
2019-05-01T04:45:47.737Z,96.70
2019-05-01T04:47:53.893Z,96.40
2019-05-01T04:50:00.384Z,96.10
2019-05-01T04:52:06.274Z,96.00
2019-05-01T04:54:12.688Z,95.70
2019-05-01T04:56:18.806Z,95.90
2019-05-01T04:58:24.449Z,96.10
2019-05-01T05:00:30.187Z,95.90
2019-05-01T05:02:38.330Z,95.90
2019-05-01T05:04:44.370Z,95.80
2019-05-01T05:06:50.803Z,95.80
2019-05-01T05:08:57.153Z,95.50
2019-05-01T05:11:04.428Z,95.40
2019-05-01T05:13:11.679Z,95.40
2019-05-01T05:15:31.356Z,95.40
2019-05-01T05:17:37.062Z,95.60
2019-05-01T05:19:42.872Z,95.20
2019-05-01T05:21:48.720Z,95.40
2019-05-01T05:23:54.573Z,95.20
2019-05-01T05:26:01.236Z,95.10
2019-05-01T05:28:06.891Z,95.20
2019-05-01T05:30:12.688Z,94.30
2019-05-01T05:32:20.979Z,94.50
2019-05-01T05:34:27.501Z,94.40
2019-05-01T05:36:35.377Z,94.10
2019-05-01T05:38:44.364Z,94.40
2019-05-01T05:40:50.378Z,94.00
2019-05-01T05:42:56.530Z,94.30
2019-05-01T05:45:02.496Z,94.10
2019-05-01T05:47:09.060Z,94.00
2019-05-01T05:49:15.006Z,94.40
2019-05-01T05:51:29.912Z,93.90
2019-05-01T05:53:48.821Z,94.20
2019-05-01T05:55:59.345Z,93.70
2019-05-01T05:58:13.792Z,93.90
2019-05-01T06:00:23.483Z,93.70
2019-05-01T06:02:48.411Z,92.80
2019-05-01T06:05:01.590Z,92.80
2019-05-01T06:07:24.446Z,92.60
2019-05-01T06:09:35.153Z,91.80
2019-05-01T06:11:43.344Z,91.90
2019-05-01T06:13:52.533Z,91.10
2019-05-01T06:16:04.080Z,90.00
2019-05-01T06:18:17.305Z,88.10
2019-05-01T06:20:25.872Z,86.60
2019-05-01T06:22:40.695Z,83.10
2019-05-01T06:25:02.919Z,80.00
2019-05-01T06:27:08.976Z,79.60
2019-05-01T06:29:15.402Z,77.80
2019-05-01T06:31:22.990Z,76.80
2019-05-01T06:33:28.427Z,78.50
2019-05-01T06:35:38.263Z,77.40
2019-05-01T06:38:02.055Z,77.50
2019-05-01T06:40:09.663Z,77.60
2019-05-01T06:42:16.948Z,77.20
2019-05-01T06:44:24.364Z,75.70
2019-05-01T06:46:35.545Z,73.50
2019-05-01T06:49:01.917Z,73.40
2019-05-01T06:51:12.918Z,71.40
2019-05-01T06:53:16.701Z,71.10
2019-05-01T06:55:26.570Z,73.10
2019-05-01T06:57:30.756Z,74.10
2019-05-01T06:59:38.352Z,71.40
2019-05-01T07:01:44.499Z,72.90
2019-05-01T07:04:03.243Z,70.00
2019-05-01T07:05:57.538Z,69.20
2019-05-01T07:08:03.904Z,71.20
2019-05-01T07:10:09.657Z,68.30
2019-05-01T07:12:17.588Z,67.80
2019-05-01T07:14:23.382Z,66.50
2019-05-01T07:16:33.136Z,66.50
2019-05-01T07:18:36.497Z,64.20
2019-05-01T07:20:47.270Z,64.40
2019-05-01T07:22:51.606Z,67.20
2019-05-01T07:24:58.955Z,68.70
2019-05-01T07:27:04.789Z,69.40
2019-05-01T07:29:18.037Z,63.70
2019-05-01T07:31:26.111Z,65.30
2019-05-01T07:33:31.444Z,66.00
2019-05-01T07:35:38.133Z,63.30
2019-05-01T07:37:44.338Z,64.20
2019-05-01T07:39:51.729Z,60.30
2019-05-01T07:41:59.116Z,58.00
2019-05-01T07:44:12.730Z,59.60
2019-05-01T07:46:20.144Z,61.60
2019-05-01T07:48:41.703Z,57.90
2019-05-01T07:50:45.709Z,58.90
2019-05-01T07:52:53.950Z,59.40
2019-05-01T07:55:00.113Z,58.00
2019-05-01T07:57:05.714Z,57.20
2019-05-01T07:59:11.453Z,58.80
2019-05-01T08:01:36.827Z,57.80
2019-05-01T08:03:42.955Z,58.60
2019-05-01T08:05:49.552Z,56.80
2019-05-01T08:07:55.144Z,57.40
2019-05-01T08:10:00.671Z,56.60
2019-05-01T08:12:06.449Z,57.10
2019-05-01T08:14:16.668Z,58.70
2019-05-01T08:16:20.501Z,57.20
2019-05-01T08:18:43.291Z,57.30
2019-05-01T08:20:51.597Z,59.20
2019-05-01T08:22:57.228Z,53.40
2019-05-01T08:25:02.909Z,56.30
2019-05-01T08:27:10.192Z,56.10
2019-05-01T08:29:26.151Z,54.80
2019-05-01T08:31:42.232Z,54.40
2019-05-01T08:33:52.085Z,56.40
2019-05-01T08:35:57.611Z,56.10
2019-05-01T08:38:03.271Z,52.00
2019-05-01T08:40:09.133Z,53.10
2019-05-01T08:42:14.726Z,53.60
2019-05-01T08:44:24.866Z,57.40
2019-05-01T08:46:50.608Z,56.30
2019-05-01T08:48:58.827Z,55.50
2019-05-01T08:51:04.555Z,52.70
2019-05-01T08:53:10.193Z,53.90
2019-05-01T08:55:15.864Z,51.90
2019-05-01T08:57:21.375Z,51.50
2019-05-01T08:59:26.964Z,50.50
2019-05-01T09:01:32.536Z,51.20
2019-05-01T09:03:38.143Z,50.30
2019-05-01T09:05:43.732Z,55.40
2019-05-01T09:07:51.320Z,49.60
2019-05-01T09:09:56.451Z,54.10
2019-05-01T09:12:02.109Z,53.50
2019-05-01T09:14:07.697Z,58.10
2019-05-01T09:16:13.216Z,56.00
2019-05-01T09:18:18.955Z,53.70
2019-05-01T09:20:24.748Z,52.60
2019-05-01T09:22:30.475Z,56.70
2019-05-01T09:24:36.211Z,51.90
2019-05-01T09:26:50.289Z,52.20
2019-05-01T09:29:16.110Z,57.50
2019-05-01T09:31:22.984Z,56.20
2019-05-01T09:33:30.896Z,54.70
2019-05-01T09:35:40.466Z,58.00
2019-05-01T09:37:43.083Z,53.50
2019-05-01T09:39:48.732Z,51.20
2019-05-01T09:41:54.320Z,55.10
2019-05-01T09:43:59.898Z,53.00
2019-05-01T09:46:05.545Z,53.90
2019-05-01T09:48:11.189Z,54.80
2019-05-01T09:50:16.776Z,56.20
2019-05-01T09:52:29.718Z,56.40
2019-05-01T09:54:46.712Z,64.90
2019-05-01T09:56:50.354Z,59.30
2019-05-01T09:58:55.989Z,59.70
2019-05-01T10:01:01.589Z,57.90
2019-05-01T10:03:07.283Z,60.80
2019-05-01T10:05:13.042Z,55.80
2019-05-01T10:07:18.633Z,56.30
2019-05-01T10:09:26.592Z,54.40
2019-05-01T10:11:36.046Z,53.90
2019-05-01T10:13:41.476Z,54.70
2019-05-01T10:15:47.149Z,53.60
2019-05-01T10:17:52.672Z,56.20
2019-05-01T10:19:58.389Z,53.10
2019-05-01T10:22:03.980Z,54.10
2019-05-01T10:24:09.620Z,54.70
2019-05-01T10:26:19.109Z,53.80
2019-05-01T10:28:25.627Z,54.60
2019-05-01T10:30:36.373Z,55.30
2019-05-01T10:32:44.401Z,53.30
2019-05-01T10:34:57.490Z,53.30
2019-05-01T10:37:03.123Z,51.60
2019-05-01T10:39:10.125Z,53.20
2019-05-01T10:41:15.654Z,52.00
2019-05-01T10:43:21.186Z,53.20
2019-05-01T10:45:26.813Z,54.10
2019-05-01T10:47:32.447Z,52.60
2019-05-01T10:49:38.096Z,51.70
2019-05-01T10:51:43.686Z,51.10
2019-05-01T10:53:49.184Z,55.80
2019-05-01T10:55:54.779Z,50.50
2019-05-01T10:58:03.227Z,50.30
2019-05-01T11:00:11.519Z,51.70
2019-05-01T11:02:19.260Z,55.80
2019-05-01T11:04:24.851Z,55.50
2019-05-01T11:06:30.436Z,53.80
2019-05-01T11:08:35.960Z,54.30
2019-05-01T11:10:41.551Z,53.70
2019-05-01T11:12:47.183Z,52.30
2019-05-01T11:14:52.713Z,53.90
2019-05-01T11:16:58.758Z,52.90
2019-05-01T11:19:05.477Z,54.60
2019-05-01T11:21:11.076Z,55.30
2019-05-01T11:23:16.731Z,56.80
2019-05-01T11:25:23.744Z,55.70
2019-05-01T11:27:29.355Z,53.10
2019-05-01T11:29:34.924Z,54.60
2019-05-01T11:31:58.733Z,55.10
2019-05-01T11:34:06.083Z,60.20
2019-05-01T11:36:13.271Z,53.70
2019-05-01T11:38:23.229Z,54.70
2019-05-01T11:40:36.598Z,54.80
2019-05-01T11:42:42.131Z,54.00
2019-05-01T11:44:47.723Z,57.60
2019-05-01T11:46:54.212Z,56.20
2019-05-01T11:48:59.739Z,55.60
2019-05-01T11:51:05.614Z,57.90
2019-05-01T11:53:11.132Z,60.80
2019-05-01T11:55:16.840Z,54.10
2019-05-01T11:57:22.404Z,54.00
2019-05-01T11:59:27.928Z,52.90
2019-05-01T12:01:33.456Z,57.50
2019-05-01T12:03:39.031Z,55.50
2019-05-01T12:05:44.585Z,56.10
2019-05-01T12:07:50.189Z,53.40
2019-05-01T12:09:55.794Z,52.70
2019-05-01T12:12:03.174Z,56.60
2019-05-01T12:14:08.842Z,55.90
2019-05-01T12:16:21.759Z,57.20
2019-05-01T12:18:27.341Z,52.70
2019-05-01T12:20:32.977Z,51.80
2019-05-01T12:22:38.548Z,53.00
2019-05-01T12:24:45.217Z,52.80
2019-05-01T12:26:50.839Z,51.00
2019-05-01T12:28:56.413Z,51.00
2019-05-01T12:31:03.260Z,50.00
2019-05-01T12:33:08.953Z,49.50
2019-05-01T12:35:14.634Z,54.10
2019-05-01T12:37:33.796Z,50.60
2019-05-01T12:39:39.354Z,53.00
2019-05-01T12:41:53.231Z,49.30
2019-05-01T12:43:58.744Z,50.80
2019-05-01T12:46:04.647Z,51.90
2019-05-01T12:48:10.241Z,49.90
2019-05-01T12:50:16.449Z,49.20
2019-05-01T12:52:23.666Z,47.60
2019-05-01T12:54:37.175Z,49.40
2019-05-01T12:56:44.375Z,47.50
2019-05-01T12:58:50.462Z,46.70
2019-05-01T13:00:56.441Z,47.50
2019-05-01T13:03:02.005Z,46.90
2019-05-01T13:05:08.175Z,50.50
2019-05-01T13:07:14.479Z,47.30
2019-05-01T13:09:23.573Z,48.20
2019-05-01T13:11:27.496Z,45.60
2019-05-01T13:13:34.145Z,47.40
2019-05-01T13:15:39.663Z,47.90
2019-05-01T13:17:45.206Z,49.20
2019-05-01T13:19:50.724Z,46.00
2019-05-01T13:21:56.362Z,46.20
2019-05-01T13:24:02.030Z,46.70
2019-05-01T13:26:09.532Z,46.20
2019-05-01T13:28:16.873Z,44.90
2019-05-01T13:30:24.181Z,45.30
2019-05-01T13:32:31.413Z,44.40
2019-05-01T13:34:36.985Z,45.20
2019-05-01T13:36:42.704Z,45.90
2019-05-01T13:38:48.293Z,46.60
2019-05-01T13:40:53.830Z,47.00
2019-05-01T13:42:59.404Z,48.60
2019-05-01T13:45:07.537Z,47.60
2019-05-01T13:47:13.063Z,46.20
2019-05-01T13:49:18.588Z,48.00
2019-05-01T13:51:24.170Z,49.20
2019-05-01T13:53:29.802Z,49.60
2019-05-01T13:55:35.401Z,49.20
2019-05-01T13:57:40.984Z,53.10
2019-05-01T13:59:46.554Z,48.80
2019-05-01T14:01:52.240Z,47.90
2019-05-01T14:03:57.810Z,50.00
2019-05-01T14:06:03.515Z,51.30
2019-05-01T14:08:09.122Z,52.50
2019-05-01T14:10:15.166Z,49.40
2019-05-01T14:12:20.755Z,50.70
2019-05-01T14:14:26.362Z,49.20
2019-05-01T14:16:31.931Z,49.00
2019-05-01T14:18:37.536Z,51.10
2019-05-01T14:20:54.627Z,49.20
2019-05-01T14:23:01.780Z,49.00
2019-05-01T14:25:09.163Z,49.90
2019-05-01T14:27:14.722Z,49.20
2019-05-01T14:29:20.324Z,50.40
2019-05-01T14:31:25.855Z,50.50
2019-05-01T14:33:31.444Z,51.60
2019-05-01T14:35:36.964Z,56.90
2019-05-01T14:37:44.767Z,52.10
2019-05-01T14:39:50.513Z,56.30
2019-05-01T14:42:18.385Z,53.20
2019-05-01T14:44:35.717Z,51.80
2019-05-01T14:46:31.407Z,53.00
2019-05-01T14:48:36.933Z,51.50
2019-05-01T14:50:42.477Z,52.70
2019-05-01T14:52:48.971Z,53.50
2019-05-01T14:54:54.501Z,50.50
2019-05-01T14:57:00.028Z,53.00
2019-05-01T14:59:05.810Z,51.00
2019-05-01T15:01:11.325Z,54.70
2019-05-01T15:03:16.855Z,56.10
2019-05-01T15:05:22.452Z,52.90
2019-05-01T15:07:28.031Z,52.50
2019-05-01T15:09:33.645Z,54.00
2019-05-01T15:11:40.309Z,54.50
2019-05-01T15:13:53.698Z,54.30
2019-05-01T15:16:06.676Z,54.90
2019-05-01T15:18:13.838Z,53.40
2019-05-01T15:20:19.381Z,52.10
2019-05-01T15:22:24.972Z,56.50
2019-05-01T15:24:30.500Z,54.50
2019-05-01T15:26:36.021Z,54.80
2019-05-01T15:28:41.624Z,54.10
2019-05-01T15:30:47.164Z,54.40
2019-05-01T15:32:52.699Z,55.10
2019-05-01T15:34:58.216Z,58.30
2019-05-01T15:37:04.013Z,54.80
2019-05-01T15:39:11.613Z,55.90
2019-05-01T15:41:33.884Z,57.90
2019-05-01T15:43:43.824Z,57.80
2019-05-01T15:45:49.348Z,56.10
2019-05-01T15:47:54.860Z,57.20
2019-05-01T15:50:00.500Z,58.00
2019-05-01T15:52:06.156Z,58.60
2019-05-01T15:54:11.680Z,58.20
2019-05-01T15:56:17.211Z,57.20
2019-05-01T15:58:22.793Z,58.40
2019-05-01T16:00:28.389Z,59.10
2019-05-01T16:02:47.726Z,59.70
2019-05-01T16:04:53.388Z,62.30
2019-05-01T16:07:01.043Z,62.10
2019-05-01T16:09:07.741Z,62.00
2019-05-01T16:11:15.081Z,64.20
2019-05-01T16:13:20.614Z,65.10
2019-05-01T16:15:30.804Z,67.70
2019-05-01T16:17:36.490Z,66.70
2019-05-01T16:19:42.089Z,67.10
2019-05-01T16:21:47.698Z,67.50
2019-05-01T16:23:53.236Z,68.00
2019-05-01T16:25:58.861Z,67.70
2019-05-01T16:28:04.651Z,70.10
2019-05-01T16:30:10.821Z,71.10
2019-05-01T16:32:16.404Z,70.50
2019-05-01T16:34:22.034Z,72.10
2019-05-01T16:36:27.612Z,72.20
2019-05-01T16:38:34.775Z,71.20
2019-05-01T16:40:56.929Z,71.90
2019-05-01T16:43:02.468Z,75.80
2019-05-01T16:45:08.944Z,72.90
2019-05-01T16:47:14.501Z,74.40
2019-05-01T16:49:20.088Z,74.50
2019-05-01T16:51:25.832Z,75.80
2019-05-01T16:53:31.377Z,75.50
2019-05-01T16:55:36.903Z,75.20
2019-05-01T16:57:42.509Z,76.50
2019-05-01T16:59:48.126Z,76.90
2019-05-01T17:01:55.808Z,77.00
2019-05-01T17:04:14.806Z,77.20
2019-05-01T17:06:25.222Z,78.40
2019-05-01T17:08:44.445Z,77.40
2019-05-01T17:10:51.356Z,77.60
2019-05-01T17:12:57.401Z,78.90
2019-05-01T17:15:02.992Z,79.30
2019-05-01T17:17:10.592Z,79.10
2019-05-01T17:19:16.151Z,79.70
2019-05-01T17:21:21.758Z,80.70
2019-05-01T17:23:27.276Z,81.10
2019-05-01T17:25:32.879Z,81.30
2019-05-01T17:27:38.557Z,81.00
2019-05-01T17:29:44.161Z,81.60
2019-05-01T17:31:49.777Z,81.40
2019-05-01T17:33:56.735Z,82.60
2019-05-01T17:36:02.588Z,83.30
2019-05-01T17:38:08.226Z,83.40
2019-05-01T17:40:14.186Z,83.70
2019-05-01T17:42:19.920Z,85.10
2019-05-01T17:44:26.609Z,84.70
2019-05-01T17:46:32.627Z,84.80
2019-05-01T17:48:39.205Z,85.30
2019-05-01T17:50:44.807Z,85.60
2019-05-01T17:52:50.354Z,86.80
2019-05-01T17:54:55.886Z,85.80
2019-05-01T17:57:01.453Z,86.00
2019-05-01T17:59:07.055Z,86.30
2019-05-01T18:01:27.959Z,86.10
2019-05-01T18:03:41.298Z,85.50
2019-05-01T18:06:06.853Z,86.00
2019-05-01T18:08:12.374Z,86.50
2019-05-01T18:10:17.964Z,86.50
2019-05-01T18:12:28.303Z,87.30
2019-05-01T18:14:30.877Z,88.00
2019-05-01T18:16:36.544Z,87.70
2019-05-01T18:18:42.254Z,88.10
2019-05-01T18:20:47.856Z,87.90
2019-05-01T18:22:58.064Z,88.00
2019-05-01T18:25:14.644Z,88.30
2019-05-01T18:27:37.991Z,89.30
2019-05-01T18:29:45.159Z,90.20
2019-05-01T18:31:50.815Z,90.40
2019-05-01T18:33:56.896Z,90.30
2019-05-01T18:36:04.536Z,91.10
2019-05-01T18:38:12.976Z,92.00
2019-05-01T18:40:35.364Z,92.60
2019-05-01T18:42:40.967Z,92.80
2019-05-01T18:44:48.844Z,93.70
2019-05-01T18:46:55.697Z,94.60
2019-05-01T18:49:01.341Z,94.10
2019-05-01T18:51:07.006Z,94.40
2019-05-01T18:53:12.728Z,94.10
2019-05-01T18:55:18.401Z,94.60
2019-05-01T18:57:24.088Z,95.50
2019-05-01T18:59:30.692Z,95.50
2019-05-01T19:01:36.278Z,95.70
2019-05-01T19:03:42.705Z,96.50
2019-05-01T19:05:49.220Z,96.50
2019-05-01T19:07:54.817Z,95.70
2019-05-01T19:10:00.429Z,95.90
2019-05-01T19:12:07.895Z,96.30
2019-05-01T19:14:14.181Z,96.40
2019-05-01T19:16:19.862Z,96.50
2019-05-01T19:18:25.453Z,96.70
2019-05-01T19:20:31.028Z,96.70
2019-05-01T19:22:36.705Z,97.20
2019-05-01T19:24:42.462Z,97.00
2019-05-01T19:26:48.036Z,97.30
2019-05-01T19:28:53.585Z,97.30
2019-05-01T19:30:59.238Z,97.50
2019-05-01T19:33:05.369Z,97.00
2019-05-01T19:35:11.254Z,97.00
2019-05-01T19:37:22.004Z,96.90
2019-05-01T19:39:24.307Z,97.00
2019-05-01T19:41:29.917Z,96.80
2019-05-01T19:43:35.755Z,96.80
2019-05-01T19:45:42.726Z,97.20
2019-05-01T19:47:48.288Z,97.20
2019-05-01T19:49:54.671Z,97.40
2019-05-01T19:52:01.915Z,97.60
2019-05-01T19:54:08.272Z,97.80
2019-05-01T19:56:16.591Z,97.60
2019-05-01T19:58:21.300Z,97.50
2019-05-01T20:00:51.415Z,97.60
2019-05-01T20:02:59.019Z,97.80
2019-05-01T20:05:07.348Z,97.80
2019-05-01T20:07:15.766Z,97.70
2019-05-01T20:09:21.085Z,97.50
2019-05-01T20:11:26.762Z,97.50
2019-05-01T20:13:32.448Z,96.90
2019-05-01T20:15:38.182Z,97.30
2019-05-01T20:17:43.791Z,97.50
2019-05-01T20:19:49.506Z,97.40
2019-05-01T20:21:55.152Z,97.60
2019-05-01T20:24:04.306Z,97.60
2019-05-01T20:26:08.115Z,97.60
2019-05-01T20:28:13.626Z,97.70
2019-05-01T20:30:19.275Z,97.80
2019-05-01T20:32:26.180Z,98.20
2019-05-01T20:34:32.102Z,98.50
2019-05-01T20:36:37.715Z,98.60
2019-05-01T20:38:43.387Z,99.20
2019-05-01T20:40:50.063Z,97.60
2019-05-01T20:42:55.720Z,97.70
2019-05-01T20:45:04.639Z,97.50
2019-05-01T20:47:08.533Z,97.80
2019-05-01T20:49:14.199Z,97.40
2019-05-01T20:51:20.816Z,97.60
2019-05-01T20:53:26.406Z,97.40
2019-05-01T20:55:31.998Z,97.50
2019-05-01T20:57:39.297Z,97.40
2019-05-01T20:59:48.160Z,96.90
2019-05-01T21:01:52.861Z,97.10
2019-05-01T21:04:01.183Z,97.40
2019-05-01T21:06:09.187Z,97.50
2019-05-01T21:08:16.640Z,97.60
2019-05-01T21:10:25.196Z,97.80
2019-05-01T21:12:31.076Z,97.90
2019-05-01T21:14:36.730Z,98.10
2019-05-01T21:16:43.914Z,98.00
2019-05-01T21:18:49.496Z,98.10
2019-05-01T21:20:55.027Z,98.20
2019-05-01T21:23:03.932Z,98.20
2019-05-01T21:25:08.041Z,98.60
2019-05-01T21:27:13.559Z,98.50
2019-05-01T21:29:19.141Z,98.30
2019-05-01T21:31:24.797Z,98.10
2019-05-01T21:33:30.500Z,98.20
2019-05-01T21:35:36.084Z,98.10
2019-05-01T21:37:41.778Z,98.30
2019-05-01T21:39:47.378Z,98.30
2019-05-01T21:41:53.379Z,98.20
2019-05-01T21:43:58.956Z,98.30
2019-05-01T21:46:04.708Z,98.30
2019-05-01T21:48:10.300Z,98.50
2019-05-01T21:50:17.710Z,98.70
2019-05-01T21:52:26.919Z,98.80
2019-05-01T21:54:30.524Z,98.60
2019-05-01T21:56:36.915Z,98.50
2019-05-01T21:58:45.171Z,98.30
2019-05-01T22:00:50.976Z,98.40
2019-05-01T22:02:56.644Z,98.20
2019-05-01T22:05:03.781Z,98.10
2019-05-01T22:07:10.445Z,98.40
2019-05-01T22:09:17.731Z,98.10
2019-05-01T22:11:23.469Z,98.20
2019-05-01T22:13:29.128Z,98.00
2019-05-01T22:15:36.512Z,97.80
2019-05-01T22:17:43.744Z,98.00
2019-05-01T22:19:49.411Z,98.10
2019-05-01T22:21:59.492Z,98.10
2019-05-01T22:24:23.576Z,98.30
2019-05-01T22:26:33.328Z,98.40
2019-05-01T22:28:43.249Z,98.10
2019-05-01T22:30:53.320Z,97.70
2019-05-01T22:32:59.855Z,97.50
2019-05-01T22:35:16.209Z,97.50
2019-05-01T22:37:21.764Z,97.50
2019-05-01T22:39:28.934Z,97.30
2019-05-01T22:41:34.781Z,97.50
2019-05-01T22:43:40.395Z,97.10
2019-05-01T22:45:46.512Z,96.60
2019-05-01T22:47:52.236Z,96.50
2019-05-01T22:49:57.852Z,96.30
2019-05-01T22:52:03.507Z,96.00
2019-05-01T22:54:09.084Z,96.10
2019-05-01T22:56:14.688Z,96.20
2019-05-01T22:58:20.314Z,96.00
2019-05-01T23:00:47.680Z,96.10
2019-05-01T23:02:53.429Z,96.00
2019-05-01T23:04:58.992Z,96.40
2019-05-01T23:07:04.964Z,96.40
2019-05-01T23:09:13.735Z,96.10
2019-05-01T23:11:20.558Z,96.20
2019-05-01T23:13:26.387Z,96.10
2019-05-01T23:15:32.917Z,95.90
2019-05-01T23:17:47.499Z,95.40
2019-05-01T23:19:53.245Z,95.50
2019-05-01T23:21:58.770Z,95.50
2019-05-01T23:24:04.838Z,95.40
2019-05-01T23:26:11.575Z,95.30
2019-05-01T23:28:17.693Z,95.30
2019-05-01T23:30:23.388Z,95.40
2019-05-01T23:32:29.049Z,95.10
2019-05-01T23:34:35.195Z,95.40
2019-05-01T23:36:40.833Z,95.20
2019-05-01T23:38:46.410Z,94.80
2019-05-01T23:40:52.948Z,94.90
2019-05-01T23:42:58.595Z,94.90
2019-05-01T23:45:05.206Z,94.90
2019-05-01T23:47:10.821Z,94.90
2019-05-01T23:49:16.402Z,95.00
2019-05-01T23:51:23.796Z,94.70
2019-05-01T23:53:29.203Z,94.80
2019-05-01T23:55:34.793Z,94.60
2019-05-01T23:57:40.328Z,94.50
2019-05-01T23:59:45.924Z,94.10
